Time;durP1;ratioP1;P1;durP2;ratioP2;P2;SDS_P1;SDS_P2;PMS_P1;PMS_P2;Temp;Humidity;BMP_temperature;BMP_pressure;BME280_temperature;BME280_humidity;BME280_pressure;Samples;Min_cycle;Max_cycle;Signal;HPM_P1;HPM_P2
2022/03/17 06:47:08;;;;;;;55.85;24.52;;;;;;;3.48;100.00;95778.91;5128246;27;20634;-64
2022/03/17 06:49:33;;;;;;;86.25;31.58;;;;;;;3.60;100.00;95690.88;5131213;27;20118;-64
2022/03/17 06:52:01;;;;;;;97.40;35.42;;;;;;;3.70;100.00;95641.75;5129442;27;20114;-65
2022/03/17 06:54:27;;;;;;;117.85;38.97;;;;;;;3.78;100.00;95595.63;5096819;27;20032;-66
2022/03/17 06:56:52;;;;;;;124.97;42.78;;;;;;;3.92;100.00;95556.66;5055310;28;20470;-64
2022/03/17 06:59:18;;;;;;;110.80;40.45;;;;;;;4.04;100.00;95515.22;5107421;28;20015;-64
2022/03/17 07:01:52;;;;;;;118.78;43.20;;;;;;;4.17;100.00;95477.19;5112996;28;20114;-64
2022/03/17 07:04:20;;;;;;;113.63;44.50;;;;;;;4.29;100.00;95457.72;5108900;28;20483;-64
2022/03/17 07:06:46;;;;;;;110.85;45.17;;;;;;;4.43;100.00;95436.38;5108912;28;20517;-65
2022/03/17 07:09:11;;;;;;;109.38;44.47;;;;;;;4.51;100.00;95418.34;5103866;28;20032;-65
2022/03/17 07:11:37;;;;;;;94.18;42.05;;;;;;;4.60;100.00;95390.50;5094176;28;20015;-65
2022/03/17 07:14:08;;;;;;;96.30;42.45;;;;;;;4.70;100.00;95373.28;5113635;27;20023;-64
2022/03/17 07:16:36;;;;;;;93.75;42.88;;;;;;;4.81;100.00;95359.28;5109316;28;20020;-64
2022/03/17 07:19:02;;;;;;;89.65;43.30;;;;;;;4.88;100.00;95342.25;5095842;28;20432;-64
2022/03/17 07:21:28;;;;;;;84.15;40.70;;;;;;;4.97;100.00;95347.22;5090966;28;20024;-65
2022/03/17 07:23:53;;;;;;;85.05;41.85;;;;;;;4.91;100.00;95336.47;5113039;27;20081;-64
2022/03/17 07:26:26;;;;;;;83.28;41.95;;;;;;;5.00;100.00;95336.19;5088895;28;20052;-64
2022/03/17 07:28:54;;;;;;;;;;;;;;;5.10;100.00;95334.63;5078738;28;20066;-65
2022/03/17 07:31:26;;;;;;;69.13;34.90;;;;;;;5.18;100.00;95333.47;5091209;28;19912;-65
2022/03/17 07:33:59;;;;;;;75.65;39.53;;;;;;;5.28;100.00;95339.06;5111573;27;20436;-66
2022/03/17 07:36:33;;;;;;;69.28;37.05;;;;;;;5.43;100.00;95343.97;5109118;28;20023;-65
2022/03/17 07:39:03;;;;;;;66.18;35.03;;;;;;;5.52;100.00;95354.03;5090780;28;20478;-65
2022/03/17 07:41:30;;;;;;;60.30;34.33;;;;;;;5.66;100.00;95354.69;5109020;28;20031;-65
2022/03/17 07:43:57;;;;;;;60.88;32.97;;;;;;;5.78;100.00;95366.13;5090607;28;20028;-65
2022/03/17 07:46:23;;;;;;;59.72;31.70;;;;;;;5.90;100.00;95376.81;5108558;28;20044;-66
2022/03/17 07:48:55;;;;;;;58.80;31.90;;;;;;;6.01;100.00;95384.00;5108804;28;20497;-64
2022/03/17 07:51:21;;;;;;;55.03;31.93;;;;;;;6.11;100.00;95388.78;5108919;28;20110;-65
2022/03/17 07:53:49;;;;;;;52.55;31.00;;;;;;;6.22;100.00;95390.63;5108550;28;20111;-65
2022/03/17 07:56:18;;;;;;;50.78;28.95;;;;;;;6.33;100.00;95397.81;5108410;28;20016;-65
2022/03/17 07:58:44;;;;;;;53.10;27.85;;;;;;;6.45;100.00;95403.13;5095036;28;20020;-65
2022/03/17 08:01:10;;;;;;;44.13;26.30;;;;;;;6.59;100.00;95409.84;5094953;28;20024;-65
2022/03/17 08:03:35;;;;;;;48.25;28.15;;;;;;;6.70;100.00;95418.88;5094986;28;20024;-65
2022/03/17 08:06:04;;;;;;;43.42;25.38;;;;;;;6.79;100.00;95417.47;5094930;28;20517;-64
2022/03/17 08:08:34;;;;;;;45.20;26.08;;;;;;;6.98;100.00;95426.16;5076716;28;20020;-64
2022/03/17 08:11:02;;;;;;;48.63;26.55;;;;;;;7.12;100.00;95424.84;5094909;28;20216;-65
2022/03/17 08:13:27;;;;;;;41.80;25.63;;;;;;;7.23;100.00;95429.34;5095002;28;20467;-65
2022/03/17 08:16:01;;;;;;;41.58;26.02;;;;;;;7.36;100.00;95424.78;5094761;28;20026;-65
2022/03/17 08:18:30;;;;;;;43.10;26.00;;;;;;;7.52;100.00;95432.06;5095134;28;20539;-65
2022/03/17 08:20:58;;;;;;;42.50;26.58;;;;;;;7.71;100.00;95430.03;5060183;28;20375;-64
2022/03/17 08:23:24;;;;;;;41.05;24.48;;;;;;;7.91;100.00;95426.91;5092218;28;20025;-65
2022/03/17 08:25:49;;;;;;;41.28;24.55;;;;;;;8.11;100.00;95427.25;5086728;28;20124;-65
2022/03/17 08:28:17;;;;;;;42.63;25.08;;;;;;;8.37;100.00;95431.22;5075602;28;20030;-65
2022/03/17 08:30:43;;;;;;;39.17;25.05;;;;;;;8.57;100.00;95438.72;5076974;28;20390;-65
2022/03/17 08:33:12;;;;;;;38.70;23.65;;;;;;;8.75;100.00;95435.00;5095154;28;20020;-65
2022/03/17 08:35:37;;;;;;;38.65;23.50;;;;;;;8.99;100.00;95441.75;5076177;28;20474;-65
2022/03/17 08:38:03;;;;;;;37.28;22.10;;;;;;;9.20;100.00;95440.97;5094588;28;20081;-66
2022/03/17 08:40:34;;;;;;;37.85;22.73;;;;;;;9.40;100.00;95434.28;5093157;28;20024;-66
2022/03/17 08:42:59;;;;;;;38.15;23.42;;;;;;;9.58;100.00;95428.63;5094404;28;20521;-66
2022/03/17 08:51:02;;;;;;;33.13;21.50;;;;;;;9.98;100.00;95406.81;5083004;28;20043;-65
2022/03/17 08:53:27;;;;;;;39.25;22.77;;;;;;;10.01;100.00;95418.91;5075674;28;20020;-66
2022/03/17 08:55:53;;;;;;;37.08;23.02;;;;;;;10.06;100.00;95414.41;5076046;28;20077;-66
2022/03/17 08:58:19;;;;;;;34.70;21.85;;;;;;;10.09;100.00;95408.56;5093927;28;20024;-66
2022/03/17 09:00:47;;;;;;;36.30;22.45;;;;;;;10.17;100.00;95405.41;5094236;28;20425;-65
2022/03/17 09:03:12;;;;;;;34.65;22.52;;;;;;;10.33;100.00;95405.59;5093103;28;20030;-65
2022/03/17 09:05:48;;;;;;;37.65;22.00;;;;;;;10.56;100.00;95401.75;5075248;28;20115;-67
2022/03/17 09:08:14;;;;;;;38.28;22.85;;;;;;;10.78;100.00;95396.28;5075088;28;20540;-66
2022/03/17 09:10:40;;;;;;;37.13;22.92;;;;;;;10.89;100.00;95382.69;5074019;28;20047;-66
2022/03/17 09:13:07;;;;;;;38.65;22.48;;;;;;;10.99;100.00;95377.38;5075486;28;20054;-66
2022/03/17 09:15:38;;;;;;;35.70;22.13;;;;;;;11.16;100.00;95363.78;5093695;28;20023;-66
2022/03/17 09:18:06;;;;;;;35.55;23.52;;;;;;;11.33;100.00;95356.34;5093538;28;20034;-66
2022/03/17 09:20:31;;;;;;;37.22;22.60;;;;;;;11.50;100.00;95344.59;5093535;28;20100;-66
2022/03/17 09:23:04;;;;;;;36.10;22.05;;;;;;;11.65;100.00;95333.13;5093367;28;20115;-66
2022/03/17 09:25:30;;;;;;;36.90;22.95;;;;;;;11.68;100.00;95316.47;5093430;28;20558;-66
2022/03/17 09:27:56;;;;;;;36.20;22.52;;;;;;;11.72;100.00;95301.44;5093346;28;20039;-66
2022/03/17 09:30:22;;;;;;;33.92;21.23;;;;;;;11.83;100.00;95287.00;5075182;28;20024;-66
2022/03/17 09:32:51;;;;;;;34.20;22.25;;;;;;;11.87;100.00;95272.78;5093187;28;20024;-66
2022/03/17 09:35:17;;;;;;;33.70;21.90;;;;;;;12.00;100.00;95254.53;5093237;28;20024;-66
2022/03/17 09:37:43;;;;;;;35.95;22.02;;;;;;;11.98;100.00;95238.72;5079617;28;20028;-65
2022/03/17 09:40:15;;;;;;;33.53;21.67;;;;;;;11.97;100.00;95236.28;5074960;28;20532;-66
2022/03/17 09:42:43;;;;;;;33.08;22.13;;;;;;;11.85;100.00;95233.88;5093227;28;20030;-66
2022/03/17 09:45:10;;;;;;;32.97;21.55;;;;;;;11.87;100.00;95226.38;5067154;28;20388;-66
2022/03/17 09:47:38;;;;;;;35.72;22.17;;;;;;;11.93;100.00;95227.94;5051616;28;20036;-66
2022/03/17 09:50:07;;;;;;;35.10;22.25;;;;;;;11.92;100.00;95231.72;5052816;28;20020;-67
2022/03/17 09:52:36;;;;;;;35.67;22.92;;;;;;;11.97;100.00;95234.41;5052649;28;20114;-66
2022/03/17 09:55:03;;;;;;;33.00;21.60;;;;;;;12.12;100.00;95233.59;5052729;28;20029;-66
2022/03/17 09:57:29;;;;;;;33.25;21.08;;;;;;;12.21;100.00;95239.22;5051440;28;20411;-66
2022/03/17 09:59:57;;;;;;;42.30;22.10;;;;;;;12.23;100.00;95251.28;5052509;28;20029;-65
2022/03/17 10:02:25;;;;;;;35.65;21.23;;;;;;;12.33;100.00;95267.41;5052368;28;20052;-66
2022/03/17 10:04:54;;;;;;;40.05;23.73;;;;;;;12.44;100.00;95268.19;5067989;28;20020;-65
2022/03/17 10:07:22;;;;;;;36.35;22.45;;;;;;;12.51;100.00;95284.84;5034615;28;20090;-65
2022/03/17 10:09:51;;;;;;;39.70;21.92;;;;;;;12.55;100.00;95293.94;5051084;28;20039;-66
2022/03/17 10:12:20;;;;;;;36.70;21.98;;;;;;;12.63;100.00;95306.03;5052283;28;20033;-66
2022/03/17 10:14:53;;;;;;;35.47;23.00;;;;;;;12.75;100.00;95323.47;5067501;28;20016;-66
2022/03/17 10:17:39;;;;;;;33.63;22.33;;;;;;;12.80;100.00;95337.97;5052347;28;20024;-66
2022/03/17 10:20:25;;;;;;;36.47;22.67;;;;;;;12.94;100.00;95347.09;5052696;28;20075;-66
2022/03/17 10:22:52;;;;;;;33.25;21.35;;;;;;;13.08;100.00;95369.63;5052158;28;20036;-66
2022/03/17 10:25:20;;;;;;;33.13;21.33;;;;;;;13.19;100.00;95382.00;5052263;28;20027;-66
2022/03/17 10:27:49;;;;;;;35.85;22.65;;;;;;;13.29;100.00;95398.13;5052260;28;20032;-65
2022/03/17 10:30:20;;;;;;;34.78;22.10;;;;;;;13.40;100.00;95416.91;5052133;28;20053;-66
2022/03/17 10:33:03;;;;;;;35.60;21.98;;;;;;;13.38;100.00;95437.91;5050631;28;20043;-65
2022/03/17 10:35:34;;;;;;;34.83;22.13;;;;;;;13.28;100.00;95454.88;5049452;28;20032;-66
2022/03/17 10:38:15;;;;;;;34.38;23.20;;;;;;;13.31;100.00;95473.16;5050987;28;20040;-66
2022/03/17 10:40:41;;;;;;;37.13;22.73;;;;;;;13.34;100.00;95491.44;5052598;28;20596;-65
2022/03/17 10:43:15;;;;;;;36.13;22.63;;;;;;;13.42;100.00;95506.25;5042862;28;20029;-66
2022/03/17 10:45:41;;;;;;;36.17;23.23;;;;;;;13.47;100.00;95515.13;5066697;28;20165;-66
2022/03/17 10:48:09;;;;;;;37.83;25.33;;;;;;;13.54;100.00;95533.66;5092223;28;20108;-66
2022/03/17 10:50:44;;;;;;;39.30;23.20;;;;;;;13.67;100.00;95551.13;5092229;28;20032;-66
2022/03/17 10:53:10;;;;;;;34.13;22.25;;;;;;;13.70;100.00;95572.94;5103335;28;20028;-66
2022/03/17 10:55:38;;;;;;;38.90;24.33;;;;;;;13.74;100.00;95589.34;5073171;28;20021;-66
2022/03/17 10:58:40;;;;;;;32.63;22.83;;;;;;;13.55;100.00;95607.94;5071958;28;20055;-66
2022/03/17 11:01:08;;;;;;;38.97;23.33;;;;;;;13.59;100.00;95620.59;5072980;28;20040;-66
2022/03/17 11:03:34;;;;;;;33.47;23.35;;;;;;;13.45;100.00;95626.78;5078963;28;20031;-66
2022/03/17 11:05:59;;;;;;;34.60;23.08;;;;;;;13.59;100.00;95635.94;5091632;28;20027;-66
2022/03/17 11:08:25;;;;;;;37.28;23.67;;;;;;;13.64;100.00;95634.03;5073706;28;20498;-65
2022/03/17 11:10:51;;;;;;;37.78;24.05;;;;;;;13.74;100.00;95644.00;5073758;28;20525;-66
2022/03/17 11:13:26;;;;;;;37.17;23.23;;;;;;;13.65;100.00;95651.00;5077036;28;20025;-66
2022/03/17 11:16:12;;;;;;;33.15;21.60;;;;;;;13.73;100.00;95655.03;5053432;28;20021;-66
2022/03/17 11:18:40;;;;;;;43.65;22.90;;;;;;;13.87;100.00;95669.56;5080059;28;20020;-65
2022/03/17 11:21:24;;;;;;;31.80;21.77;;;;;;;13.96;100.00;95684.09;5091741;28;20020;-66
2022/03/17 11:23:59;;;;;;;33.78;22.08;;;;;;;14.07;100.00;95685.69;5086063;28;20036;-66
2022/03/17 11:27:05;;;;;;;31.48;21.30;;;;;;;14.29;100.00;95679.19;5071108;28;20543;-66
2022/03/17 11:29:38;;;;;;;29.95;20.73;;;;;;;14.41;100.00;95696.66;5060179;28;20478;-66
2022/03/17 11:32:05;;;;;;;;;;;;;;;14.60;100.00;95713.09;5093143;28;20051;-67
2022/03/17 11:34:47;;;;;;;31.70;20.55;;;;;;;14.72;100.00;95727.06;5075379;22;19929;-64
2022/03/17 11:37:18;;;;;;;31.10;21.58;;;;;;;14.65;100.00;95742.75;5027912;28;20387;-64
2022/03/17 11:39:51;;;;;;;32.88;20.10;;;;;;;14.56;100.00;95760.56;5034286;28;20028;-64
2022/03/17 11:42:54;;;;;;;30.65;21.38;;;;;;;14.50;100.00;95758.94;5034185;28;20033;-64
2022/03/17 11:45:20;;;;;;;30.60;19.27;;;;;;;14.43;100.00;95753.78;5051815;28;20104;-64
2022/03/17 11:47:56;;;;;;;27.88;19.50;;;;;;;14.42;100.00;95764.84;5036343;28;20120;-64
2022/03/17 11:50:24;;;;;;;26.77;18.52;;;;;;;14.42;100.00;95757.56;5054183;28;20035;-63
2022/03/17 11:53:03;;;;;;;26.42;17.58;;;;;;;14.47;100.00;95754.91;5034897;28;20388;-65
2022/03/17 11:55:32;;;;;;;24.95;16.58;;;;;;;14.54;100.00;95767.28;5016237;28;20371;-64
2022/03/17 11:58:26;;;;;;;33.22;19.70;;;;;;;14.42;100.00;95776.44;5016565;28;20029;-65
2022/03/17 12:01:13;;;;;;;31.25;19.15;;;;;;;14.23;100.00;95788.88;5016407;28;20068;-64
2022/03/17 12:03:44;;;;;;;26.90;18.05;;;;;;;14.08;100.00;95789.66;5036727;28;20032;-64
2022/03/17 12:06:13;;;;;;;30.50;18.33;;;;;;;14.04;100.00;95787.81;5053600;28;20029;-65
2022/03/17 12:08:59;;;;;;;26.70;16.75;;;;;;;13.93;100.00;95793.19;5024907;28;20455;-64
2022/03/17 12:11:27;;;;;;;26.65;16.40;;;;;;;14.03;100.00;95778.91;5031885;28;20379;-64
2022/03/17 12:14:10;;;;;;;25.27;15.82;;;;;;;14.25;100.00;95775.13;5047837;28;20021;-63
2022/03/17 12:16:56;;;;;;;27.83;17.55;;;;;;;14.37;100.00;95765.69;5016265;28;20021;-64
2022/03/17 12:19:30;;;;;;;26.65;16.00;;;;;;;14.35;100.00;95781.31;5033699;28;20032;-63
2022/03/17 12:21:58;;;;;;;26.70;16.63;;;;;;;14.38;100.00;95785.34;5016338;28;20571;-64
2022/03/17 12:24:35;;;;;;;20.88;13.93;;;;;;;14.48;100.00;95793.47;5016082;28;20073;-64
2022/03/17 12:27:13;;;;;;;28.63;17.95;;;;;;;14.62;100.00;95794.50;5034000;28;20028;-64
2022/03/17 12:29:39;;;;;;;25.15;16.77;;;;;;;14.59;100.00;95778.88;5030014;28;20060;-63
2022/03/17 12:32:19;;;;;;;24.90;17.08;;;;;;;14.59;100.00;95783.47;5033509;28;20068;-63
2022/03/17 12:34:49;;;;;;;27.45;17.33;;;;;;;14.73;100.00;95779.91;5028493;28;20045;-64
2022/03/17 12:37:16;;;;;;;26.58;16.58;;;;;;;14.65;100.00;95787.75;5010857;28;20022;-63
2022/03/17 12:39:46;;;;;;;27.23;15.30;;;;;;;14.62;100.00;95783.72;5033941;28;20029;-63
2022/03/17 12:42:24;;;;;;;20.55;14.13;;;;;;;14.13;100.00;95794.28;5033817;28;20352;-64
2022/03/17 12:45:23;;;;;;;25.92;14.98;;;;;;;14.23;100.00;95774.59;5033416;28;20105;-63
2022/03/17 12:47:58;;;;;;;25.38;15.68;;;;;;;14.30;100.00;95772.41;5023981;28;20434;-62
2022/03/17 12:50:28;;;;;;;22.23;14.07;;;;;;;14.17;100.00;95774.59;5033200;28;20029;-64
2022/03/17 12:52:53;;;;;;;21.95;14.23;;;;;;;14.13;100.00;95786.19;5033675;28;20021;-64
2022/03/17 12:55:21;;;;;;;21.10;14.07;;;;;;;14.11;100.00;95766.75;5032734;28;20431;-64
2022/03/17 12:57:47;;;;;;;26.92;14.70;;;;;;;14.16;100.00;95772.16;5013423;28;20343;-63
2022/03/17 13:00:17;;;;;;;24.20;14.52;;;;;;;14.08;100.00;95768.13;5025165;28;20040;-62
2022/03/17 13:02:57;;;;;;;19.88;13.80;;;;;;;14.27;100.00;95756.81;5029641;28;20026;-62
2022/03/17 13:08:09;;;;;;;23.25;13.75;;;;;;;14.25;100.00;95770.56;5019035;28;20503;-63
2022/03/17 13:16:08;;;;;;;22.83;14.07;;;;;;;14.52;100.00;95775.66;5022614;28;20040;-63
2022/03/17 13:18:45;;;;;;;22.05;13.38;;;;;;;14.73;100.00;95771.03;5048643;28;20021;-62
2022/03/17 13:21:18;;;;;;;22.73;13.13;;;;;;;14.84;100.00;95777.19;5052844;28;20475;-64
2022/03/17 13:23:48;;;;;;;20.08;12.32;;;;;;;14.86;100.00;95793.91;5034958;28;20483;-64
2022/03/17 13:26:19;;;;;;;23.00;13.02;;;;;;;14.49;100.00;95803.97;5052795;28;20055;-64
2022/03/17 13:29:07;;;;;;;21.17;12.67;;;;;;;14.55;100.00;95798.59;5052464;28;20021;-63
2022/03/17 13:31:45;;;;;;;20.95;12.73;;;;;;;14.51;100.00;95798.28;5052781;28;20361;-64
2022/03/17 13:34:33;;;;;;;20.45;13.13;;;;;;;14.69;100.00;95805.03;5014616;28;20145;-64
2022/03/17 13:37:02;;;;;;;20.60;13.98;;;;;;;14.80;100.00;95793.13;5032684;28;20029;-63
2022/03/17 13:39:34;;;;;;;22.08;14.15;;;;;;;14.69;100.00;95808.53;5014612;28;20047;-63
2022/03/17 13:42:18;;;;;;;25.25;14.32;;;;;;;14.90;100.00;95811.97;5015383;28;20056;-63
2022/03/17 13:44:50;;;;;;;21.02;14.27;;;;;;;15.13;100.00;95809.75;5032594;28;20031;-64
2022/03/17 13:47:30;;;;;;;21.08;13.98;;;;;;;14.84;100.00;95821.16;5032589;28;20025;-64
2022/03/17 13:50:17;;;;;;;25.60;14.20;;;;;;;14.65;100.00;95825.50;5014371;28;20560;-63
2022/03/17 13:52:44;;;;;;;19.17;13.18;;;;;;;14.55;100.00;95812.88;5014534;28;20475;-63
2022/03/17 13:55:12;;;;;;;20.98;13.30;;;;;;;14.53;100.00;95806.09;5031855;28;20179;-63
2022/03/17 13:57:38;;;;;;;20.17;13.25;;;;;;;14.69;100.00;95818.50;5031937;28;20040;-64
2022/03/17 14:00:18;;;;;;;19.08;12.95;;;;;;;14.77;100.00;95807.97;5014574;28;20018;-63
2022/03/17 14:02:44;;;;;;;20.45;13.60;;;;;;;14.60;100.00;95818.25;5037361;28;20029;-61
2022/03/17 14:05:16;;;;;;;25.00;12.98;;;;;;;14.56;100.00;95824.47;5050989;28;20024;-64
2022/03/17 14:07:41;;;;;;;20.58;12.30;;;;;;;14.42;100.00;95822.25;5035960;28;20051;-64
2022/03/17 14:10:07;;;;;;;23.23;13.50;;;;;;;14.36;100.00;95819.84;5030719;28;20025;-62
2022/03/17 14:12:33;;;;;;;22.67;12.88;;;;;;;14.31;100.00;95817.16;5013418;28;20116;-64
2022/03/17 14:14:59;;;;;;;19.52;11.93;;;;;;;14.31;100.00;95819.84;5013349;28;20484;-63
2022/03/17 14:17:24;;;;;;;20.63;10.50;;;;;;;14.48;100.00;95813.13;5013601;28;20037;-63
2022/03/17 14:19:49;;;;;;;17.27;9.93;;;;;;;14.24;100.00;95830.91;5030622;28;20028;-64
2022/03/17 14:24:59;;;;;;;17.52;10.30;;;;;;;14.24;100.00;95816.63;5029537;28;20071;-63
2022/03/17 14:27:26;;;;;;;15.98;10.05;;;;;;;14.23;100.00;95812.31;5027682;28;20053;-63
2022/03/17 14:29:51;;;;;;;17.25;10.65;;;;;;;14.27;100.00;95810.69;5028958;28;20033;-64
2022/03/17 14:32:17;;;;;;;17.80;10.55;;;;;;;14.24;100.00;95822.81;5029711;28;20045;-63
2022/03/17 14:34:42;;;;;;;19.88;10.48;;;;;;;14.29;100.00;95816.63;5026176;28;20056;-62
2022/03/17 14:37:08;;;;;;;19.73;11.00;;;;;;;14.29;100.00;95817.41;5028362;28;20052;-63
2022/03/17 14:39:36;;;;;;;17.42;11.20;;;;;;;14.14;100.00;95820.94;5027666;28;20029;-63
2022/03/17 14:42:02;;;;;;;16.70;9.80;;;;;;;14.10;100.00;95819.03;5011528;28;20030;-63
2022/03/17 14:44:27;;;;;;;17.95;10.77;;;;;;;14.26;100.00;95814.47;5010081;28;20037;-64
2022/03/17 14:46:52;;;;;;;19.85;10.57;;;;;;;14.39;100.00;95805.84;5011138;28;20423;-63
2022/03/17 14:49:18;;;;;;;23.55;10.00;;;;;;;14.54;100.00;95815.81;5028797;28;20059;-63
2022/03/17 14:51:43;;;;;;;17.33;9.88;;;;;;;14.45;100.00;95829.06;5028505;28;20017;-64
2022/03/17 14:54:09;;;;;;;17.10;9.80;;;;;;;14.50;100.00;95837.13;5027522;28;20021;-64
2022/03/17 14:56:35;;;;;;;19.38;9.65;;;;;;;14.57;100.00;95845.75;5010782;28;20721;-62
2022/03/17 14:59:01;;;;;;;15.10;9.23;;;;;;;14.35;100.00;95846.00;5027360;28;20029;-62
2022/03/17 15:01:28;;;;;;;18.90;8.88;;;;;;;14.28;100.00;95858.13;5029662;28;20053;-63
2022/03/17 15:03:55;;;;;;;19.75;9.10;;;;;;;14.22;100.00;95854.63;5027578;28;20040;-64
2022/03/17 15:06:22;;;;;;;17.75;8.73;;;;;;;14.24;100.00;95854.34;5027411;28;20092;-63
2022/03/17 15:08:49;;;;;;;17.52;8.70;;;;;;;14.27;100.00;95851.91;5015905;28;20076;-63
2022/03/17 15:11:19;;;;;;;12.80;7.68;;;;;;;14.29;100.00;95848.94;5013941;28;20021;-62
2022/03/17 15:13:45;;;;;;;14.43;8.30;;;;;;;14.20;100.00;95859.44;5017478;28;20107;-63
2022/03/17 15:16:12;;;;;;;15.98;8.13;;;;;;;14.22;100.00;95860.00;5032875;28;20112;-62
2022/03/17 15:18:37;;;;;;;14.27;8.50;;;;;;;14.07;100.00;95863.47;5014128;28;20035;-64
2022/03/17 15:21:04;;;;;;;19.48;8.98;;;;;;;13.93;100.00;95852.44;5015690;28;20527;-64
2022/03/17 15:23:32;;;;;;;20.80;9.27;;;;;;;13.90;100.00;95852.97;5014866;28;20029;-62
2022/03/17 15:26:01;;;;;;;16.77;9.32;;;;;;;13.93;100.00;95844.34;5014107;28;20083;-63
2022/03/17 15:31:14;;;;;;;21.48;10.20;;;;;;;14.08;100.00;95840.03;5029823;28;20097;-63
2022/03/17 15:33:41;;;;;;;16.75;10.15;;;;;;;14.20;100.00;95832.50;5028663;28;20049;-63
2022/03/17 15:36:09;;;;;;;21.10;11.82;;;;;;;14.03;100.00;95845.44;5032253;28;20053;-63
2022/03/17 15:38:34;;;;;;;17.55;11.65;;;;;;;13.86;100.00;95846.47;5017993;28;20455;-63
2022/03/17 15:41:00;;;;;;;19.10;10.85;;;;;;;13.74;100.00;95840.53;5032380;28;20033;-63
2022/03/17 15:43:28;;;;;;;24.02;11.98;;;;;;;13.69;100.00;95837.84;5015690;28;20047;-64
2022/03/17 15:45:57;;;;;;;17.80;12.02;;;;;;;13.64;100.00;95827.06;5034746;28;20071;-65
2022/03/17 15:48:25;;;;;;;21.85;11.90;;;;;;;13.56;100.00;95814.91;5034383;28;20032;-65
2022/03/17 15:50:55;;;;;;;24.08;13.07;;;;;;;13.48;100.00;95809.25;5034267;28;20047;-65
2022/03/17 15:53:21;;;;;;;22.30;14.07;;;;;;;13.25;100.00;95810.53;5033110;28;20028;-64
2022/03/17 15:55:46;;;;;;;23.60;15.13;;;;;;;13.21;100.00;95798.66;5028135;28;20022;-64
2022/03/17 15:58:12;;;;;;;21.58;14.05;;;;;;;13.03;100.00;95792.66;5030126;28;20025;-65
2022/03/17 16:00:38;;;;;;;27.23;15.48;;;;;;;12.82;100.00;95782.88;5034401;28;20025;-65
2022/03/17 16:03:05;;;;;;;21.40;14.10;;;;;;;12.72;100.00;95778.28;5013561;28;20494;-65
2022/03/17 16:05:31;;;;;;;21.88;14.27;;;;;;;12.56;100.00;95767.69;5016840;28;20112;-65
2022/03/17 16:07:57;;;;;;;25.48;15.68;;;;;;;12.47;100.00;95767.34;5016474;28;20442;-65
2022/03/17 16:15:58;;;;;;;28.25;16.00;;;;;;;12.10;100.00;95741.34;5034556;28;20446;-65
2022/03/17 16:18:33;;;;;;;23.92;14.18;;;;;;;12.03;100.00;95732.69;5033730;28;20034;-64
2022/03/17 16:20:59;;;;;;;21.80;14.70;;;;;;;12.03;100.00;95723.81;5035145;28;20502;-65
2022/03/17 16:23:26;;;;;;;23.05;14.75;;;;;;;11.95;100.00;95718.97;5034443;28;20031;-65
2022/03/17 16:25:52;;;;;;;22.85;15.05;;;;;;;11.92;100.00;95722.94;5034355;28;20437;-65
2022/03/17 16:28:19;;;;;;;27.02;15.65;;;;;;;11.81;100.00;95716.69;5033493;28;20100;-65
2022/03/17 16:30:50;;;;;;;23.85;15.85;;;;;;;11.74;100.00;95715.28;5034177;28;20022;-65
2022/03/17 16:33:16;;;;;;;24.95;16.10;;;;;;;11.69;100.00;95715.22;5035332;28;20037;-65
2022/03/17 16:35:46;;;;;;;24.67;16.17;;;;;;;11.68;100.00;95718.97;5034140;28;20480;-65
2022/03/17 16:38:21;;;;;;;28.20;16.10;;;;;;;11.59;100.00;95716.75;5049643;28;20040;-65
2022/03/17 16:40:47;;;;;;;27.65;15.90;;;;;;;11.54;100.00;95719.41;5040453;28;20021;-63
2022/03/17 16:43:14;;;;;;;28.08;16.58;;;;;;;11.49;100.00;95715.84;5029748;28;20025;-62
2022/03/17 16:45:41;;;;;;;29.17;16.55;;;;;;;11.40;100.00;95723.56;5030909;28;20025;-64
2022/03/17 16:48:07;;;;;;;29.98;17.30;;;;;;;11.32;100.00;95719.47;5031727;28;20384;-64
2022/03/17 16:50:35;;;;;;;26.75;16.80;;;;;;;11.29;100.00;95717.31;5029009;28;20021;-64
2022/03/17 16:53:01;;;;;;;33.38;16.63;;;;;;;11.22;100.00;95715.88;5013011;28;20735;-63
2022/03/17 16:55:26;;;;;;;29.73;17.92;;;;;;;11.20;100.00;95715.34;5033803;28;20484;-63
2022/03/17 16:57:54;;;;;;;28.42;18.60;;;;;;;11.11;100.00;95712.28;5012550;28;20017;-63
2022/03/17 17:00:20;;;;;;;30.02;17.70;;;;;;;11.06;100.00;95712.22;5027110;28;20419;-63
2022/03/17 17:02:46;;;;;;;29.10;17.63;;;;;;;11.02;100.00;95711.91;5030710;28;20553;-64
2022/03/17 17:05:11;;;;;;;29.80;18.75;;;;;;;10.95;100.00;95710.50;5030203;28;20021;-64
2022/03/17 17:07:37;;;;;;;28.00;18.13;;;;;;;10.88;100.00;95709.91;5033756;28;20033;-61
2022/03/17 17:10:03;;;;;;;30.55;18.40;;;;;;;10.81;100.00;95720.78;5030225;28;20036;-62
2022/03/17 17:12:31;;;;;;;31.95;19.30;;;;;;;10.72;100.00;95711.56;5011134;28;20034;-64
2022/03/17 17:14:57;;;;;;;33.63;21.30;;;;;;;10.68;100.00;95711.28;5030636;28;20033;-62
2022/03/17 17:17:22;;;;;;;31.38;20.08;;;;;;;10.59;100.00;95718.13;5031903;28;20018;-64
2022/03/17 17:19:50;;;;;;;35.85;21.13;;;;;;;10.56;100.00;95718.63;5016044;28;20622;-65
2022/03/17 17:22:16;;;;;;;27.90;19.50;;;;;;;10.49;100.00;95714.50;5028043;28;20025;-65
2022/03/17 17:30:40;;;;;;;33.72;20.25;;;;;;;10.27;100.00;95717.16;5026423;28;20053;-62
2022/03/17 17:33:04;;;;;;;34.00;20.42;;;;;;;10.13;100.00;95724.72;5026383;28;20080;-63
2022/03/17 17:35:29;;;;;;;32.55;21.17;;;;;;;10.07;100.00;95718.47;5011469;28;20058;-64
2022/03/17 17:37:56;;;;;;;34.22;21.77;;;;;;;10.01;100.00;95724.00;4994918;28;20407;-63
2022/03/17 17:40:22;;;;;;;32.85;21.02;;;;;;;9.93;100.00;95719.88;5010967;28;20544;-64
2022/03/17 17:42:47;;;;;;;31.50;21.60;;;;;;;9.86;100.00;95724.56;5008124;28;20110;-65
2022/03/17 17:45:14;;;;;;;34.78;21.23;;;;;;;9.79;100.00;95732.78;5011212;28;20431;-65
2022/03/17 17:47:41;;;;;;;33.85;21.33;;;;;;;9.75;100.00;95728.94;5029804;28;20033;-65
2022/03/17 17:50:12;;;;;;;36.00;22.80;;;;;;;9.75;100.00;95733.50;5012491;28;20029;-65
2022/03/17 17:52:39;;;;;;;33.78;21.67;;;;;;;9.71;100.00;95733.16;5025737;28;20127;-65
2022/03/17 17:55:05;;;;;;;36.08;21.90;;;;;;;9.69;100.00;95732.63;4996179;28;20167;-66
2022/03/17 17:57:39;;;;;;;32.30;21.55;;;;;;;9.65;100.00;95741.34;4998364;28;20044;-65
2022/03/17 18:00:06;;;;;;;30.58;20.80;;;;;;;9.64;100.00;95745.06;5031943;28;20017;-65
2022/03/17 18:02:35;;;;;;;32.17;21.45;;;;;;;9.57;100.00;95751.41;5018518;28;20021;-64
2022/03/17 18:05:05;;;;;;;37.63;22.80;;;;;;;9.55;100.00;95750.84;5051556;28;20035;-66
2022/03/17 18:07:33;;;;;;;34.22;22.67;;;;;;;9.54;100.00;95762.56;5033783;28;20032;-64
2022/03/17 18:09:59;;;;;;;35.80;22.60;;;;;;;9.51;100.00;95759.56;5033708;28;20510;-65
2022/03/17 18:12:25;;;;;;;40.70;23.30;;;;;;;9.51;100.00;95771.09;5051621;28;20029;-65
2022/03/17 18:14:52;;;;;;;34.33;22.02;;;;;;;9.49;100.00;95764.38;5033776;28;20542;-64
2022/03/17 18:17:18;;;;;;;36.40;22.50;;;;;;;9.40;100.00;95768.47;5051785;28;20048;-66
2022/03/17 18:19:43;;;;;;;36.15;22.13;;;;;;;9.38;100.00;95767.91;5033770;28;20063;-65
2022/03/17 18:22:08;;;;;;;33.83;22.33;;;;;;;9.36;100.00;95789.53;5051767;28;20040;-65
2022/03/17 18:24:34;;;;;;;36.15;22.95;;;;;;;9.30;100.00;95783.28;5051589;28;20096;-65
2022/03/17 18:27:00;;;;;;;33.88;21.02;;;;;;;9.29;100.00;95795.03;5028104;28;20063;-62
2022/03/17 18:29:27;;;;;;;35.60;21.10;;;;;;;9.24;100.00;95797.63;5031626;28;20041;-65
2022/03/17 18:31:54;;;;;;;33.65;20.83;;;;;;;9.23;100.00;95795.19;5051364;28;20029;-65
2022/03/17 18:34:19;;;;;;;34.10;20.70;;;;;;;9.20;100.00;95806.34;5051315;28;20063;-65
2022/03/17 18:36:45;;;;;;;34.05;21.15;;;;;;;9.15;100.00;95808.91;5051482;28;20021;-66
2022/03/17 18:39:13;;;;;;;35.97;21.45;;;;;;;9.13;100.00;95808.34;5034315;28;20039;-65